Glen White, WV (25849)

10:48 AM EST on February 10, 2016 (GMT -0500)
Raleigh County Memorial | | Change Station
CLOSE
Current Station
Airport
Location: Beckley,
Elevation: 2513 ft
Nearby Weather Stations
Active Advisory: Winter Weather Advisory Active Notice: Local Storm Report

Elev 2513 ft 37.79 °N, 81.12 °W | Updated 46 minutes ago

Snow
Snow
13 °F
Feels Like 2 °F
N
8
Wind Variable Wind from West

Today
High -- | Low -- °F
--% Chance of Precip.
Yesterday
High -- | Low -- °F
Precip. -- in
Pressure 29.84 in
Visibility 1.5 miles
Clouds Scattered Clouds 1800 ft
Mostly Cloudy 2500 ft
Overcast 3400 ft
Windchill 2 °F
Dew Point 6 °F
Humidity 74%
Rainfall 0.00 in
Snow Depth Not available.
7:20 AM 5:58 PM
Waxing Crescent, 6% visible
SPECI KBKW 101502Z AUTO 28007KT 1 1/2SM -SN SCT018 BKN025 OVC034 M11/M14 A2984 RMK AO2 P0000 T11061144
Pressure 29.84 in
Visibility 1.5 miles
Clouds Scattered Clouds 1800 ft
Mostly Cloudy 2500 ft
Overcast 3400 ft
Windchill 2 °F
Dew Point 6 °F
Humidity 74%
Rainfall 0.00 in
Snow Depth Not available.
7:20 AM 5:58 PM
Waxing Crescent, 6% visible
SPECI KBKW 101502Z AUTO 28007KT 1 1/2SM -SN SCT018 BKN025 OVC034 M11/M14 A2984 RMK AO2 P0000 T11061144

10-Day Weather Forecast

Almanac

Astronomy

Feb. 10, 2016 Rise Set
Actual Time
Civil Twilight
Nautical Twilight
Astronomical Twilight
Moon
Length of Visible Light
Length of Day
Tomorrow will be .
, % of the Moon is Illuminated

Today's Extremes

State Highs State Lows

Community

WunderPhotos

Upload Photos

1,891,863 photos uploaded!

WunderBlog® & News

Nearby

Air Quality

  Air Quality AQ Index Pollutant
Not available.

Snow Depth

Station Depth Elevation

Earthquake Activity

City Distance Mag. Time & Date
Minimum magnitude displayed is 2.5.

Coastal Water Temperatures

Place Temperature

Stations

Nearby Weather Stations

Station Location Temp. Windchill Dew Point Humidity Wind Precip. Elev Updated Type
                   

Watches & Warnings

Winter Weather Advisory
Issued: 4:38 AM EST Feb. 10, 2016 – National Weather Service

... Winter Weather Advisory now in effect until 6 PM EST this
evening...

* hazard types... snow showers of varying intensity.

* Total snow accumulations from Monday night through today... 2 to
5 inches in southern Ohio... southern West Virginia and
southwest Virginia... 4 to 9 inches in portions of north central
West Virginia.

* Temperatures... around 20.

* Impacts... travel may be difficult at times. Visibilities will
be limited at times.

Precautionary/preparedness actions...

A Winter Weather Advisory for snow means that periods of snow
will cause primarily travel difficulties. Be prepared for snow
covered roads and limited visibilities... and use caution while
driving.

With the colder weather... have your vehicle equipped with
emergency supplies.